Cannon Air Force Base
KCVS : now visible

Airfield :











YOU CAN JOIN US ON...

 
LOGIN :

Register | Disclaimer

   EN    FR    IT 

 









Legend :    VFR   Marginal VFR   IFR   Intensive IFR   Very Intensive IFR
Visi :
Ceiling :
>= 8 km
>= 3000ft
5 to 8 km
1000 to 3000 ft
1500m to 5 km
500 to 1000 ft
800 to 1500m
200 to 500 ft
< 800m
< 200 ft
Symbols :   Thunderstorms  Fog  Heavy snow  Heavy precipitations  Wind > 20 kt







- Airport Elevation : 4295 ft


KCVS - Cannon Air Force Base

CURRENT METAR :
  • 260358Z AUTO 12003KT 10SM CLR 25/11 A2991 RMK AO2 SLP060 T02450114 $

EXPIRED METARs :
  • 260258Z AUTO 12006KT 10SM CLR 27/11 A2990 RMK AO2 SLP059 T02650110 55001 $
  • 260158Z AUTO 10004KT 7SM CLR 29/09 A2989 RMK AO2 SLPNO T02930094 $

TAF TAF KCVS
Valid from the 26 at 02:00 until the 27 at 08:00 UTC


260200Z 2602/2708 15006KT 9999 SKC QNH2990INS
BECMG 2607/2608 23008KT 9999 SKC QNH2988INS
BECMG 2616/2617 36012G18KT 9999 SKC QNH2989INS
BECMG 2700/2701 05010KT 9999 SKC QNH2991INS TX37/2620Z TN19/2611Z
No reported NOTAMs for that airfield.



MET'MAP, your aeronautical weather chart ! - Copyright ORBIFLY December 2007 - Disclaimer

ORBIFLY MET'MAP TEAM :

Programming & Development : Alexandra Zaïnal
Concept & Development : Baudouin d'Aumeries
Co-Development & Prog : Marc-Olivier Méhu
Technical & hardware support : Manuel Goepfert

Contact : metmap@orbifly.com




SOURCES & CREDITS :

   NOAA       Earth
Advisory